createdAt,value
2018-05-17T00:01:45.297Z,9.57
2018-05-17T00:04:12.695Z,9.17
2018-05-17T00:06:40.083Z,10.70
2018-05-17T00:09:07.483Z,10.00
2018-05-17T00:11:34.883Z,10.80
2018-05-17T00:14:02.269Z,9.97
2018-05-17T00:16:29.667Z,10.27
2018-05-17T00:18:57.055Z,10.50
2018-05-17T00:21:24.470Z,10.53
2018-05-17T00:23:51.871Z,10.67
2018-05-17T00:26:19.257Z,11.83
2018-05-17T00:28:46.657Z,10.37
2018-05-17T00:31:14.049Z,11.10
2018-05-17T00:33:41.443Z,10.70
2018-05-17T00:36:08.868Z,9.57
2018-05-17T00:38:36.261Z,9.90
2018-05-17T00:41:03.655Z,11.10
2018-05-17T00:43:31.045Z,10.63
2018-05-17T00:45:58.440Z,11.10
2018-05-17T00:48:25.849Z,10.17
2018-05-17T00:50:53.248Z,9.93
2018-05-17T00:53:31.612Z,10.70
2018-05-17T00:55:59.019Z,11.30
2018-05-17T00:58:26.408Z,11.03
2018-05-17T01:00:53.821Z,11.53
2018-05-17T01:03:21.236Z,11.33
2018-05-17T01:05:48.640Z,11.47
2018-05-17T01:08:16.065Z,12.60
2018-05-17T01:10:43.476Z,11.07
2018-05-17T01:13:10.867Z,11.53
2018-05-17T01:15:38.260Z,12.80
2018-05-17T01:18:05.662Z,12.40
2018-05-17T01:20:33.047Z,13.70
2018-05-17T01:23:00.449Z,13.60
2018-05-17T01:25:27.862Z,13.67
2018-05-17T01:27:55.255Z,15.33
2018-05-17T01:30:22.649Z,13.90
2018-05-17T01:32:50.051Z,14.30
2018-05-17T01:35:17.431Z,13.43
2018-05-17T01:37:56.579Z,14.60
2018-05-17T01:40:23.963Z,15.97
2018-05-17T01:42:51.361Z,13.10
2018-05-17T01:45:18.783Z,14.90
2018-05-17T01:47:46.193Z,14.10
2018-05-17T01:50:13.600Z,15.93
2018-05-17T01:52:41.114Z,15.60
2018-05-17T01:55:08.506Z,16.00
2018-05-17T01:57:35.893Z,16.10
2018-05-17T02:00:03.280Z,16.10
2018-05-17T02:02:30.683Z,14.73
2018-05-17T02:04:58.089Z,15.63
2018-05-17T02:07:25.487Z,16.90
2018-05-17T02:09:52.875Z,16.40
2018-05-17T02:12:20.281Z,16.93
2018-05-17T02:14:47.669Z,16.67
2018-05-17T02:17:15.068Z,16.40
2018-05-17T02:19:42.469Z,15.30
2018-05-17T02:22:09.862Z,16.20
2018-05-17T02:24:37.272Z,14.57
2018-05-17T02:27:04.666Z,16.63
2018-05-17T02:29:32.063Z,16.47
2018-05-17T02:31:59.457Z,16.17
2018-05-17T02:34:26.857Z,15.27
2018-05-17T02:36:54.245Z,15.80
2018-05-17T02:39:21.651Z,15.23
2018-05-17T02:41:49.080Z,15.03
2018-05-17T02:44:16.463Z,16.07
2018-05-17T02:46:43.863Z,14.10
2018-05-17T02:49:11.292Z,14.37
2018-05-17T02:51:38.662Z,13.23
2018-05-17T02:54:06.043Z,13.70
2018-05-17T02:56:33.431Z,13.83
2018-05-17T02:59:00.833Z,13.70
2018-05-17T03:01:28.220Z,14.87
2018-05-17T03:03:55.611Z,14.20
2018-05-17T03:06:23.017Z,13.37
2018-05-17T03:08:50.411Z,13.43
2018-05-17T03:11:17.795Z,12.43
2018-05-17T03:13:45.192Z,14.50
2018-05-17T03:16:12.594Z,15.03
2018-05-17T03:18:40.013Z,13.13
2018-05-17T03:21:07.403Z,12.27
2018-05-17T03:23:34.805Z,14.07
2018-05-17T03:26:02.235Z,13.17
2018-05-17T03:28:29.621Z,13.60
2018-05-17T03:30:57.012Z,12.30
2018-05-17T03:33:24.433Z,12.80
2018-05-17T03:35:51.840Z,11.47
2018-05-17T03:38:19.408Z,13.00
2018-05-17T03:40:46.675Z,12.10
2018-05-17T03:43:14.067Z,12.30
2018-05-17T03:45:41.460Z,11.60
2018-05-17T03:48:08.842Z,12.10
2018-05-17T03:50:36.292Z,13.17
2018-05-17T03:53:03.679Z,12.03
2018-05-17T03:55:31.075Z,11.43
2018-05-17T03:57:58.475Z,11.70
2018-05-17T04:00:26.606Z,10.60
2018-05-17T04:03:05.825Z,10.90
2018-05-17T04:05:45.178Z,12.17
2018-05-17T04:08:12.558Z,10.73
2018-05-17T04:10:39.961Z,11.20
2018-05-17T04:13:07.342Z,10.30
2018-05-17T04:15:34.735Z,10.63
2018-05-17T04:18:02.143Z,10.37
2018-05-17T04:20:29.533Z,10.23
2018-05-17T04:22:56.927Z,10.70
2018-05-17T04:25:24.323Z,10.70
2018-05-17T04:27:51.703Z,10.40
2018-05-17T04:30:19.095Z,9.47
2018-05-17T04:32:46.477Z,8.83
2018-05-17T04:35:13.868Z,11.10
2018-05-17T04:37:41.270Z,10.30
2018-05-17T04:40:08.659Z,10.50
2018-05-17T04:42:36.048Z,9.50
2018-05-17T04:45:03.460Z,9.97
2018-05-17T04:47:30.872Z,9.73
2018-05-17T04:49:58.255Z,9.10
2018-05-17T04:52:25.646Z,7.93
2018-05-17T04:54:53.028Z,8.50
2018-05-17T04:57:20.418Z,8.27
2018-05-17T04:59:47.804Z,8.87
2018-05-17T05:02:15.193Z,7.30
2018-05-17T05:04:42.579Z,8.50
2018-05-17T05:07:09.997Z,7.17
2018-05-17T05:09:37.371Z,8.00
2018-05-17T05:12:04.765Z,8.00
2018-05-17T05:14:32.153Z,7.50
2018-05-17T05:16:59.554Z,7.50
2018-05-17T05:19:26.940Z,6.77
2018-05-17T05:21:54.335Z,6.03
2018-05-17T05:24:21.715Z,6.67
2018-05-17T05:26:49.104Z,7.90
2018-05-17T05:29:16.811Z,7.43
2018-05-17T05:31:44.219Z,6.00
2018-05-17T05:34:11.599Z,7.57
2018-05-17T05:36:38.979Z,6.17
2018-05-17T05:39:06.401Z,6.70
2018-05-17T05:41:33.793Z,5.80
2018-05-17T05:44:01.175Z,5.97
2018-05-17T05:46:28.559Z,6.00
2018-05-17T05:48:55.952Z,6.40
2018-05-17T05:51:23.331Z,5.83
2018-05-17T05:53:50.727Z,5.77
2018-05-17T05:56:18.124Z,6.17
2018-05-17T05:58:45.507Z,5.73
2018-05-17T06:01:12.888Z,5.47
2018-05-17T06:03:51.025Z,5.90
2018-05-17T06:06:19.577Z,5.33
2018-05-17T06:08:55.051Z,6.53
2018-05-17T06:11:30.365Z,5.53
2018-05-17T06:14:01.394Z,6.20
2018-05-17T06:16:29.036Z,5.00
2018-05-17T06:18:57.347Z,5.90
2018-05-17T06:21:24.785Z,5.50
2018-05-17T06:23:55.877Z,5.90
2018-05-17T06:26:24.936Z,5.50
2018-05-17T06:28:52.459Z,5.50
2018-05-17T06:31:19.857Z,4.43
2018-05-17T06:33:47.248Z,4.87
2018-05-17T06:36:14.619Z,5.17
2018-05-17T06:38:42.013Z,4.93
2018-05-17T06:41:09.991Z,4.83
2018-05-17T06:43:37.370Z,4.53
2018-05-17T06:46:04.768Z,5.17
2018-05-17T06:48:32.173Z,4.53
2018-05-17T06:50:59.564Z,4.47
2018-05-17T06:53:26.952Z,4.27
2018-05-17T06:55:54.360Z,4.83
2018-05-17T06:58:21.749Z,5.17
2018-05-17T07:00:49.214Z,4.83
2018-05-17T07:03:16.516Z,4.37
2018-05-17T07:05:43.935Z,4.80
2018-05-17T07:08:11.971Z,4.60
2018-05-17T07:10:39.352Z,4.47
2018-05-17T07:13:07.377Z,5.23
2018-05-17T07:15:34.785Z,4.57
2018-05-17T07:18:02.326Z,3.93
2018-05-17T07:20:29.555Z,3.53
2018-05-17T07:22:56.946Z,4.50
2018-05-17T07:25:24.333Z,4.40
2018-05-17T07:27:51.720Z,5.30
2018-05-17T07:30:19.105Z,4.43
2018-05-17T07:46:31.018Z,3.90
2018-05-17T07:48:58.397Z,4.17
2018-05-17T07:51:25.810Z,4.70
2018-05-17T07:53:53.233Z,4.37
2018-05-17T07:56:20.640Z,4.20
2018-05-17T07:58:48.019Z,4.57
2018-05-17T08:01:15.416Z,4.67
2018-05-17T08:03:42.808Z,4.40
2018-05-17T08:06:10.195Z,3.20
2018-05-17T08:08:37.590Z,4.87
2018-05-17T08:11:04.984Z,4.30
2018-05-17T08:13:32.365Z,4.23
2018-05-17T08:15:59.789Z,4.37
2018-05-17T08:18:27.173Z,3.67
2018-05-17T08:20:54.571Z,4.17
2018-05-17T08:23:21.959Z,4.17
2018-05-17T08:25:49.351Z,5.07
2018-05-17T08:28:16.758Z,4.17
2018-05-17T08:30:44.136Z,4.20
2018-05-17T08:33:11.557Z,4.80
2018-05-17T08:35:38.943Z,4.20
2018-05-17T08:38:06.344Z,3.97
2018-05-17T08:40:33.746Z,4.13
2018-05-17T08:43:01.155Z,4.00
2018-05-17T08:45:28.543Z,3.40
2018-05-17T08:47:55.923Z,3.83
2018-05-17T08:50:23.308Z,3.90
2018-05-17T08:52:50.699Z,4.70
2018-05-17T08:55:18.101Z,4.10
2018-05-17T08:57:45.492Z,4.37
2018-05-17T09:00:12.871Z,4.10
2018-05-17T09:02:40.303Z,3.13
2018-05-17T09:05:07.686Z,4.30
2018-05-17T09:07:35.076Z,3.60
2018-05-17T09:10:02.468Z,2.53
2018-05-17T09:12:29.900Z,3.10
2018-05-17T09:14:57.236Z,3.37
2018-05-17T09:17:25.276Z,2.70
2018-05-17T09:19:52.676Z,2.40
2018-05-17T09:22:20.065Z,4.27
2018-05-17T09:24:47.458Z,3.80
2018-05-17T09:27:14.835Z,3.10
2018-05-17T09:29:42.235Z,3.63
2018-05-17T09:32:09.619Z,2.97
2018-05-17T09:34:37.013Z,3.27
2018-05-17T09:37:04.401Z,3.43
2018-05-17T09:39:31.794Z,2.70
2018-05-17T09:41:59.180Z,3.30
2018-05-17T09:44:26.577Z,4.20
2018-05-17T09:46:53.957Z,3.00
2018-05-17T09:49:21.372Z,3.87
2018-05-17T09:51:48.747Z,3.20
2018-05-17T09:54:16.152Z,2.87
2018-05-17T09:56:43.532Z,2.73
2018-05-17T09:59:10.928Z,3.00
2018-05-17T10:01:38.308Z,3.10
2018-05-17T10:04:05.721Z,2.27
2018-05-17T10:06:33.104Z,2.60
2018-05-17T10:09:00.593Z,3.43
2018-05-17T10:11:27.897Z,3.67
2018-05-17T10:13:55.299Z,3.27
2018-05-17T10:16:22.680Z,2.57
2018-05-17T10:18:50.093Z,3.00
2018-05-17T10:21:17.596Z,3.30
2018-05-17T10:23:45.016Z,3.47
2018-05-17T10:26:12.420Z,4.20
2018-05-17T10:28:39.807Z,2.57
2018-05-17T10:31:07.202Z,2.93
2018-05-17T10:33:34.584Z,2.80
2018-05-17T10:36:01.983Z,2.73
2018-05-17T10:38:29.368Z,3.67
2018-05-17T10:40:56.765Z,2.30
2018-05-17T10:43:24.167Z,2.60
2018-05-17T10:45:51.568Z,3.80
2018-05-17T10:48:18.955Z,3.80
2018-05-17T10:50:46.352Z,3.20
2018-05-17T10:53:13.742Z,2.63
2018-05-17T10:55:41.289Z,2.60
2018-05-17T10:58:08.663Z,3.40
2018-05-17T11:00:36.047Z,3.10
2018-05-17T11:03:03.468Z,3.33
2018-05-17T11:05:30.844Z,2.70
2018-05-17T11:07:58.234Z,3.43
2018-05-17T11:10:25.620Z,3.27
2018-05-17T11:12:53.056Z,3.80
2018-05-17T11:15:20.454Z,3.30
2018-05-17T11:17:47.821Z,3.43
2018-05-17T11:20:15.226Z,4.00
2018-05-17T11:22:42.620Z,4.00
2018-05-17T11:25:09.996Z,4.60
2018-05-17T11:27:37.400Z,4.20
2018-05-17T11:30:04.785Z,4.13
2018-05-17T11:32:32.177Z,3.60
2018-05-17T11:34:59.565Z,3.63
2018-05-17T11:37:26.957Z,3.13
2018-05-17T11:39:54.327Z,3.40
2018-05-17T11:42:21.711Z,4.53
2018-05-17T11:44:49.119Z,4.20
2018-05-17T11:47:16.521Z,3.50
2018-05-17T11:49:43.935Z,3.60
2018-05-17T11:52:11.322Z,3.10
2018-05-17T11:54:38.706Z,4.50
2018-05-17T11:57:06.091Z,3.70
2018-05-17T11:59:33.508Z,4.13
2018-05-17T12:02:00.904Z,3.80
2018-05-17T12:04:28.289Z,3.87
2018-05-17T12:06:58.492Z,3.70
2018-05-17T12:09:32.671Z,3.37
2018-05-17T12:12:01.667Z,3.90
2018-05-17T12:14:32.409Z,4.03
2018-05-17T12:17:01.135Z,4.60
2018-05-17T12:19:29.355Z,4.13
2018-05-17T12:22:02.706Z,3.50
2018-05-17T12:24:31.352Z,3.77
2018-05-17T12:27:00.351Z,4.40
2018-05-17T12:29:29.559Z,4.23
2018-05-17T12:31:59.814Z,3.57
2018-05-17T12:34:27.495Z,3.10
2018-05-17T12:37:00.345Z,4.27
2018-05-17T12:39:29.661Z,4.83
2018-05-17T12:41:58.032Z,2.80
2018-05-17T12:44:25.647Z,3.73
2018-05-17T12:46:53.195Z,3.20
2018-05-17T12:49:22.688Z,3.27
2018-05-17T12:51:51.074Z,3.77
2018-05-17T12:54:20.392Z,3.30
2018-05-17T12:56:49.217Z,3.07
2018-05-17T12:59:17.547Z,3.83
2018-05-17T13:01:44.948Z,3.87
2018-05-17T13:04:12.335Z,3.67
2018-05-17T13:06:39.746Z,4.60
2018-05-17T13:09:07.996Z,3.70
2018-05-17T13:11:35.391Z,4.17
2018-05-17T13:14:02.785Z,5.40
2018-05-17T13:16:30.167Z,3.83
2018-05-17T13:18:57.560Z,4.10
2018-05-17T13:21:24.936Z,5.00
2018-05-17T13:23:52.324Z,4.60
2018-05-17T13:26:19.712Z,5.20
2018-05-17T13:28:47.104Z,4.13
2018-05-17T13:31:14.492Z,4.10
2018-05-17T13:33:41.891Z,5.43
2018-05-17T13:36:10.376Z,5.27
2018-05-17T13:38:37.787Z,5.37
2018-05-17T13:41:05.172Z,5.40
2018-05-17T13:43:32.553Z,4.77
2018-05-17T13:45:59.958Z,4.63
2018-05-17T13:48:27.338Z,5.30
2018-05-17T13:50:54.728Z,5.00
2018-05-17T13:53:22.112Z,4.70
2018-05-17T13:55:49.508Z,5.03
2018-05-17T13:58:16.886Z,4.47
2018-05-17T14:00:44.303Z,4.73
2018-05-17T14:03:11.675Z,6.33
2018-05-17T14:05:39.077Z,5.27
2018-05-17T14:08:06.463Z,4.93
2018-05-17T14:10:33.867Z,4.80
2018-05-17T14:13:01.273Z,5.70
2018-05-17T14:15:28.674Z,5.00
2018-05-17T14:17:56.053Z,5.50
2018-05-17T14:20:23.437Z,5.57
2018-05-17T14:22:50.816Z,6.67
2018-05-17T14:25:18.211Z,5.10
2018-05-17T14:27:45.609Z,4.93
2018-05-17T14:30:13.000Z,5.17
2018-05-17T14:32:40.384Z,4.50
2018-05-17T14:35:07.796Z,5.00
2018-05-17T14:37:35.194Z,5.40
2018-05-17T14:40:02.577Z,5.40
2018-05-17T14:42:29.964Z,6.50
2018-05-17T14:44:57.351Z,6.90
2018-05-17T14:47:24.744Z,6.90
2018-05-17T14:49:52.124Z,6.20
2018-05-17T14:52:19.512Z,6.20
2018-05-17T14:54:46.906Z,6.03
2018-05-17T14:57:14.298Z,4.83
2018-05-17T14:59:41.690Z,5.33
2018-05-17T15:02:09.100Z,4.73
2018-05-17T15:04:36.479Z,3.87
2018-05-17T15:07:03.881Z,5.23
2018-05-17T15:09:31.288Z,5.23
2018-05-17T15:17:40.375Z,5.60
2018-05-17T15:20:07.781Z,5.90
2018-05-17T15:22:35.173Z,6.90
2018-05-17T15:25:02.572Z,6.27
2018-05-17T15:27:30.094Z,6.83
2018-05-17T15:29:57.391Z,6.07
2018-05-17T15:32:24.752Z,6.57
2018-05-17T15:34:52.161Z,6.53
2018-05-17T15:37:20.303Z,5.80
2018-05-17T15:39:48.337Z,6.07
2018-05-17T15:42:15.728Z,6.03
2018-05-17T15:44:43.115Z,5.50
2018-05-17T15:47:11.102Z,27.30
2018-05-17T15:49:38.497Z,7.17
2018-05-17T15:52:05.889Z,5.90
2018-05-17T15:54:33.261Z,5.10
2018-05-17T15:57:00.654Z,6.20
2018-05-17T15:59:28.043Z,5.60
2018-05-17T16:01:55.432Z,5.00
2018-05-17T16:04:22.823Z,5.10
2018-05-17T16:06:50.200Z,4.77
2018-05-17T16:09:17.595Z,5.60
2018-05-17T16:11:44.980Z,4.87
2018-05-17T16:14:12.385Z,5.47
2018-05-17T16:16:39.763Z,4.73
2018-05-17T16:19:07.175Z,4.70
2018-05-17T16:21:34.563Z,4.80
2018-05-17T16:24:01.948Z,5.37
2018-05-17T16:26:29.324Z,6.30
2018-05-17T16:28:56.721Z,5.23
2018-05-17T16:31:24.098Z,5.73
2018-05-17T16:33:51.486Z,5.47
2018-05-17T16:36:18.869Z,5.63
2018-05-17T16:38:46.259Z,4.73
2018-05-17T16:41:13.654Z,5.23
2018-05-17T16:43:41.045Z,4.97
2018-05-17T16:46:08.444Z,5.93
2018-05-17T16:48:35.918Z,5.57
2018-05-17T16:51:03.215Z,5.73
2018-05-17T16:53:30.620Z,4.70
2018-05-17T16:55:58.002Z,5.80
2018-05-17T16:58:25.382Z,4.83
2018-05-17T17:00:53.136Z,3.87
2018-05-17T17:03:20.521Z,3.93
2018-05-17T17:05:47.906Z,4.20
2018-05-17T17:08:15.297Z,4.07
2018-05-17T17:10:43.211Z,4.10
2018-05-17T17:13:10.611Z,3.90
2018-05-17T17:15:38.017Z,3.07
2018-05-17T17:18:05.396Z,3.17
2018-05-17T17:20:32.792Z,3.80
2018-05-17T17:23:00.180Z,3.97
2018-05-17T17:25:27.583Z,4.13
2018-05-17T17:27:54.964Z,4.30
2018-05-17T17:30:22.356Z,3.50
2018-05-17T17:32:49.739Z,4.20
2018-05-17T17:35:17.131Z,3.43
2018-05-17T17:37:44.530Z,3.20
2018-05-17T17:40:11.908Z,3.23
2018-05-17T17:42:39.283Z,2.67
2018-05-17T17:45:06.683Z,3.30
2018-05-17T17:47:34.075Z,3.17
2018-05-17T17:50:01.549Z,3.10
2018-05-17T17:52:28.856Z,4.50
2018-05-17T17:54:56.266Z,3.97
2018-05-17T17:57:23.643Z,3.53
2018-05-17T17:59:51.038Z,3.80
2018-05-17T18:02:18.425Z,2.80
2018-05-17T18:04:45.803Z,2.87
2018-05-17T18:07:13.199Z,3.20
2018-05-17T18:09:40.588Z,4.13
2018-05-17T18:12:07.965Z,2.60
2018-05-17T18:14:35.361Z,3.07
2018-05-17T18:17:02.769Z,2.90
2018-05-17T18:19:30.149Z,3.67
2018-05-17T18:21:57.549Z,2.70
2018-05-17T18:24:24.919Z,3.27
2018-05-17T18:26:52.318Z,3.77
2018-05-17T18:29:19.698Z,2.97
2018-05-17T18:31:47.096Z,3.70
2018-05-17T18:34:14.476Z,1.80
2018-05-17T18:36:41.939Z,3.40
2018-05-17T18:39:09.239Z,2.43
2018-05-17T18:41:36.623Z,2.50
2018-05-17T18:44:04.008Z,3.07
2018-05-17T18:46:31.409Z,2.37
2018-05-17T18:48:58.862Z,2.10
2018-05-17T18:51:26.220Z,2.73
2018-05-17T18:53:53.648Z,2.60
2018-05-17T18:56:21.027Z,2.20
2018-05-17T18:58:48.417Z,3.83
2018-05-17T19:01:15.828Z,3.00
2018-05-17T19:03:43.219Z,2.87
2018-05-17T19:06:10.600Z,2.97
2018-05-17T19:08:38.019Z,2.67
2018-05-17T19:11:05.390Z,2.50
2018-05-17T19:13:32.772Z,2.60
2018-05-17T19:16:00.152Z,2.37
2018-05-17T19:18:27.559Z,2.50
2018-05-17T19:20:54.949Z,3.20
2018-05-17T19:23:22.334Z,3.00
2018-05-17T19:25:49.819Z,3.70
2018-05-17T19:28:17.108Z,3.23
2018-05-17T19:30:44.484Z,3.37
2018-05-17T19:33:11.876Z,3.77
2018-05-17T19:35:39.281Z,3.00
2018-05-17T19:38:06.664Z,3.57
2018-05-17T19:40:34.063Z,3.83
2018-05-17T19:43:01.468Z,3.07
2018-05-17T19:45:28.877Z,3.07
2018-05-17T19:47:56.260Z,3.10
2018-05-17T19:50:23.679Z,2.80
2018-05-17T19:52:51.079Z,2.70
2018-05-17T19:55:18.449Z,2.67
2018-05-17T19:57:45.933Z,2.60
2018-05-17T20:00:13.324Z,2.20
2018-05-17T20:02:40.715Z,2.70
2018-05-17T20:05:08.103Z,3.07
2018-05-17T20:07:35.509Z,3.50
2018-05-17T20:10:02.884Z,2.87
2018-05-17T20:12:30.275Z,3.40
2018-05-17T20:14:57.671Z,2.47
2018-05-17T20:17:25.058Z,2.50
2018-05-17T20:19:52.440Z,3.13
2018-05-17T20:22:19.822Z,2.83
2018-05-17T20:24:47.230Z,2.30
2018-05-17T20:27:14.713Z,2.50
2018-05-17T20:29:42.028Z,2.10
2018-05-17T20:32:09.416Z,2.50
2018-05-17T20:34:36.813Z,2.37
2018-05-17T20:37:04.207Z,4.30
2018-05-17T20:39:31.602Z,4.90
2018-05-17T20:41:58.984Z,2.63
2018-05-17T20:44:26.372Z,2.60
2018-05-17T20:46:53.764Z,3.70
2018-05-17T20:49:21.153Z,2.93
2018-05-17T20:51:48.543Z,3.00
2018-05-17T20:54:16.024Z,3.53
2018-05-17T20:56:43.420Z,2.70
2018-05-17T20:59:10.858Z,3.03
2018-05-17T21:01:38.247Z,3.20
2018-05-17T21:04:05.644Z,3.63
2018-05-17T21:06:33.044Z,2.53
2018-05-17T21:09:00.418Z,2.67
2018-05-17T21:11:27.803Z,1.90
2018-05-17T21:13:55.204Z,2.53
2018-05-17T21:16:22.591Z,2.80
2018-05-17T21:18:49.976Z,2.70
2018-05-17T21:21:17.374Z,2.80
2018-05-17T21:23:44.748Z,3.93
2018-05-17T21:26:12.137Z,2.60
2018-05-17T21:28:39.515Z,3.00
2018-05-17T21:31:06.908Z,2.50
2018-05-17T21:33:34.283Z,2.93
2018-05-17T21:36:01.697Z,2.53
2018-05-17T21:38:29.068Z,3.10
2018-05-17T21:40:56.469Z,3.23
2018-05-17T21:43:23.849Z,2.50
2018-05-17T21:45:51.240Z,2.80
2018-05-17T21:48:18.675Z,2.60
2018-05-17T21:50:46.072Z,2.90
2018-05-17T21:53:13.468Z,2.63
2018-05-17T21:55:40.888Z,3.07
2018-05-17T21:58:08.275Z,3.10
2018-05-17T22:00:35.696Z,2.40
2018-05-17T22:03:03.089Z,2.43
2018-05-17T22:05:30.855Z,4.00
2018-05-17T22:08:07.289Z,2.57
2018-05-17T22:10:36.109Z,3.80
2018-05-17T22:13:23.969Z,2.90
2018-05-17T22:16:00.394Z,2.73
2018-05-17T22:18:42.547Z,3.40
2018-05-17T22:24:06.372Z,3.27
2018-05-17T22:26:40.687Z,3.17
2018-05-17T22:29:10.347Z,3.70
2018-05-17T22:31:42.355Z,2.70
2018-05-17T22:34:12.923Z,3.00
2018-05-17T22:36:40.984Z,3.13
2018-05-17T22:39:11.187Z,3.80
2018-05-17T22:41:40.362Z,2.80
2018-05-17T22:44:12.271Z,4.37
2018-05-17T22:46:45.967Z,3.50
2018-05-17T22:49:28.411Z,3.47
2018-05-17T22:52:00.496Z,2.83
2018-05-17T22:54:29.952Z,3.47
2018-05-17T22:57:12.825Z,3.57
2018-05-17T23:02:29.968Z,3.80
2018-05-17T23:04:57.669Z,3.10
2018-05-17T23:07:27.491Z,2.63
2018-05-17T23:09:59.217Z,4.60
2018-05-17T23:12:28.326Z,2.70
2018-05-17T23:14:56.559Z,2.57
2018-05-17T23:17:32.031Z,3.53
2018-05-17T23:20:01.180Z,3.33
2018-05-17T23:22:35.952Z,3.47
2018-05-17T23:25:04.317Z,4.07
2018-05-17T23:27:32.675Z,2.80
2018-05-17T23:30:00.560Z,4.15
2018-05-17T23:32:30.200Z,3.60
2018-05-17T23:34:57.747Z,3.00
2018-05-17T23:37:25.840Z,3.63
2018-05-17T23:39:54.721Z,3.33
2018-05-17T23:42:24.587Z,3.77
2018-05-17T23:44:53.137Z,3.90
2018-05-17T23:47:22.203Z,2.90
2018-05-17T23:49:52.619Z,3.40
2018-05-17T23:52:20.112Z,3.50
2018-05-17T23:54:48.669Z,3.37
2018-05-17T23:57:17.377Z,3.28
2018-05-17T23:59:50.725Z,3.87
